createdAt,value
2022-08-30T00:01:58.352Z,102333.16
2022-08-30T00:04:26.298Z,102335.13
2022-08-30T00:06:52.790Z,102338.75
2022-08-30T00:09:19.208Z,102335.63
2022-08-30T00:11:45.557Z,102337.56
2022-08-30T00:14:12.354Z,102335.13
2022-08-30T00:16:38.715Z,102334.63
2022-08-30T00:19:05.056Z,102332.97
2022-08-30T00:21:31.431Z,102339.38
2022-08-30T00:23:57.825Z,102331.53
2022-08-30T00:26:24.163Z,102333.47
2022-08-30T00:28:50.528Z,102335.28
2022-08-30T00:31:16.997Z,102330.94
2022-08-30T00:33:43.631Z,102335.53
2022-08-30T00:36:10.003Z,102329.47
2022-08-30T00:38:36.427Z,102323.59
2022-08-30T00:41:03.138Z,102322.88
2022-08-30T00:43:33.964Z,102319.75
2022-08-30T00:46:04.474Z,102319.88
2022-08-30T00:48:33.342Z,102320.38
2022-08-30T00:51:03.974Z,102331.84
2022-08-30T00:53:42.030Z,102339.34
2022-08-30T00:56:08.897Z,102337.03
2022-08-30T00:58:38.659Z,102340.78
2022-08-30T01:01:08.005Z,102341.78
2022-08-30T01:03:36.581Z,102347.06
2022-08-30T01:06:04.634Z,102342.00
2022-08-30T01:08:30.982Z,102342.38
2022-08-30T01:10:57.983Z,102342.47
2022-08-30T01:13:25.970Z,102335.50
2022-08-30T01:15:53.673Z,102335.75
2022-08-30T01:18:23.025Z,102340.56
2022-08-30T01:21:07.722Z,102338.63
2022-08-30T01:23:38.397Z,102343.31
2022-08-30T01:26:06.071Z,102334.66
2022-08-30T01:28:33.755Z,102350.22
2022-08-30T01:31:01.598Z,102341.41
2022-08-30T01:33:28.636Z,102343.94
2022-08-30T01:35:59.510Z,102337.91
2022-08-30T01:38:39.848Z,102333.19
2022-08-30T01:41:17.069Z,102344.44
2022-08-30T01:43:44.190Z,102346.25
2022-08-30T01:46:11.450Z,102343.72
2022-08-30T01:48:39.281Z,102349.28
2022-08-30T01:51:06.491Z,102344.19
2022-08-30T01:53:33.006Z,102344.53
2022-08-30T01:55:59.408Z,102351.66
2022-08-30T01:58:25.794Z,102351.91
2022-08-30T02:00:52.245Z,102352.16
2022-08-30T02:03:19.868Z,102357.94
2022-08-30T02:05:46.356Z,102349.50
2022-08-30T02:08:12.727Z,102348.75
2022-08-30T02:10:39.097Z,102349.72
2022-08-30T02:13:05.499Z,102342.75
2022-08-30T02:15:34.119Z,102349.22
2022-08-30T02:18:08.147Z,102352.13
2022-08-30T02:20:34.584Z,102348.75
2022-08-30T02:23:01.485Z,102346.34
2022-08-30T02:25:28.008Z,102350.91
2022-08-30T02:27:54.346Z,102345.22
2022-08-30T02:30:20.736Z,102349.66
2022-08-30T02:32:47.091Z,102348.97
2022-08-30T02:35:13.525Z,102347.38
2022-08-30T02:37:39.918Z,102333.13
2022-08-30T02:40:07.569Z,102344.59
2022-08-30T02:42:33.979Z,102341.00
2022-08-30T02:45:00.465Z,102333.03
2022-08-30T02:47:26.865Z,102338.44
2022-08-30T02:49:53.263Z,102339.75
2022-08-30T02:52:19.819Z,102340.00
2022-08-30T02:54:54.038Z,102335.88
2022-08-30T02:57:20.558Z,102338.53
2022-08-30T02:59:47.929Z,102332.50
2022-08-30T03:02:14.784Z,102328.19
2022-08-30T03:04:41.463Z,102323.84
2022-08-30T03:07:08.463Z,102323.97
2022-08-30T03:09:36.672Z,102323.22
2022-08-30T03:12:04.804Z,102327.47
2022-08-30T03:14:32.083Z,102322.25
2022-08-30T03:16:58.801Z,102323.34
2022-08-30T03:19:25.803Z,102322.63
2022-08-30T03:21:52.168Z,102313.94
2022-08-30T03:24:18.571Z,102325.75
2022-08-30T03:26:46.549Z,102322.13
2022-08-30T03:29:13.322Z,102319.59
2022-08-30T03:31:45.393Z,102324.91
2022-08-30T03:34:19.859Z,102320.66
2022-08-30T03:36:48.403Z,102322.59
2022-08-30T03:39:15.037Z,102314.75
2022-08-30T03:41:41.413Z,102321.34
2022-08-30T03:44:07.747Z,102312.56
2022-08-30T03:46:37.510Z,102324.72
2022-08-30T03:49:05.219Z,102321.34
2022-08-30T03:51:32.003Z,102317.53
2022-08-30T03:53:58.406Z,102322.81
2022-08-30T03:56:25.321Z,102321.34
2022-08-30T03:58:51.774Z,102321.34
2022-08-30T04:01:18.371Z,102317.63
2022-08-30T04:03:44.953Z,102316.56
2022-08-30T04:06:11.777Z,102314.00
2022-08-30T04:08:39.000Z,102319.44
2022-08-30T04:11:06.363Z,102316.06
2022-08-30T04:13:33.643Z,102318.59
2022-08-30T04:16:00.639Z,102322.31
2022-08-30T04:18:27.064Z,102330.47
2022-08-30T04:20:53.892Z,102326.03
2022-08-30T04:23:20.242Z,102325.19
2022-08-30T04:25:46.983Z,102317.16
2022-08-30T04:28:13.494Z,102315.44
2022-08-30T04:30:44.927Z,102314.59
2022-08-30T04:33:13.289Z,102327.75
2022-08-30T04:35:45.143Z,102335.19
2022-08-30T04:38:13.489Z,102332.66
2022-08-30T04:40:48.440Z,102337.56
2022-08-30T04:43:16.198Z,102339.59
2022-08-30T04:45:42.916Z,102343.91
2022-08-30T04:48:10.303Z,102338.09
2022-08-30T04:50:36.687Z,102344.38
2022-08-30T04:53:03.155Z,102339.06
2022-08-30T04:55:29.559Z,102336.53
2022-08-30T04:57:56.483Z,102337.38
2022-08-30T05:00:23.177Z,102343.19
2022-08-30T05:02:49.666Z,102356.19
2022-08-30T05:05:35.689Z,102348.50
2022-08-30T05:08:02.435Z,102351.13
2022-08-30T05:10:29.571Z,102349.00
2022-08-30T05:12:56.343Z,102361.88
2022-08-30T05:15:22.707Z,102357.22
2022-08-30T05:17:49.190Z,102360.38
2022-08-30T05:20:16.111Z,102360.13
2022-08-30T05:22:49.897Z,102364.72
2022-08-30T05:25:22.946Z,102361.63
2022-08-30T05:27:49.491Z,102362.25
2022-08-30T05:30:17.208Z,102360.72
2022-08-30T05:32:43.968Z,102365.66
2022-08-30T05:35:12.448Z,102369.41
2022-08-30T05:37:38.863Z,102369.19
2022-08-30T05:40:11.122Z,102371.09
2022-08-30T05:42:41.241Z,102374.72
2022-08-30T05:45:08.126Z,102382.47
2022-08-30T05:47:34.558Z,102386.38
2022-08-30T05:50:01.067Z,102385.28
2022-08-30T05:52:27.465Z,102381.56
2022-08-30T05:55:02.648Z,102386.50
2022-08-30T05:57:32.846Z,102384.69
2022-08-30T06:00:01.100Z,102382.66
2022-08-30T06:02:27.484Z,102383.66
2022-08-30T06:04:53.930Z,102382.06
2022-08-30T06:07:22.835Z,102381.09
2022-08-30T06:09:49.472Z,102385.94
2022-08-30T06:12:15.871Z,102381.19
2022-08-30T06:14:42.326Z,102378.84
2022-08-30T06:17:08.713Z,102375.44
2022-08-30T06:19:35.145Z,102374.81
2022-08-30T06:22:01.585Z,102380.94
2022-08-30T06:24:53.578Z,102378.03
2022-08-30T06:27:15.339Z,102375.03
2022-08-30T06:29:41.665Z,102381.69
2022-08-30T06:32:08.016Z,102374.16
2022-08-30T06:34:34.372Z,102371.81
2022-08-30T06:37:00.722Z,102373.03
2022-08-30T06:39:27.131Z,102380.59
2022-08-30T06:41:53.624Z,102381.34
2022-08-30T06:44:19.985Z,102380.97
2022-08-30T06:46:46.690Z,102373.47
2022-08-30T06:49:13.100Z,102373.78
2022-08-30T06:51:40.010Z,102373.88
2022-08-30T06:54:10.896Z,102368.38
2022-08-30T06:56:40.271Z,102369.44
2022-08-30T06:59:08.895Z,102363.81
2022-08-30T07:01:35.464Z,102376.41
2022-08-30T07:04:01.938Z,102375.53
2022-08-30T07:06:29.517Z,102364.75
2022-08-30T07:08:56.640Z,102374.19
2022-08-30T07:11:37.350Z,102374.25
2022-08-30T07:14:04.701Z,102374.53
2022-08-30T07:16:31.760Z,102371.69
2022-08-30T07:18:58.848Z,102363.59
2022-08-30T07:21:43.197Z,102368.53
2022-08-30T07:24:10.173Z,102363.53
2022-08-30T07:26:43.034Z,102368.28
2022-08-30T07:29:10.115Z,102362.25
2022-08-30T07:31:37.556Z,102362.41
2022-08-30T07:34:05.430Z,102365.44
2022-08-30T07:36:32.358Z,102365.06
2022-08-30T07:38:58.969Z,102372.00
2022-08-30T07:41:28.816Z,102369.09
2022-08-30T07:43:55.870Z,102364.25
2022-08-30T07:46:23.356Z,102365.00
2022-08-30T07:48:50.209Z,102372.94
2022-08-30T07:51:20.111Z,102364.00
2022-08-30T07:53:46.539Z,102356.78
2022-08-30T07:56:13.338Z,102358.09
2022-08-30T07:58:39.759Z,102366.00
2022-08-30T08:01:08.321Z,102371.00
2022-08-30T08:03:35.302Z,102373.69
2022-08-30T08:06:04.116Z,102375.81
2022-08-30T08:08:31.323Z,102381.47
2022-08-30T08:10:58.319Z,102370.94
2022-08-30T08:13:24.838Z,102377.47
2022-08-30T08:15:55.222Z,102383.13
2022-08-30T08:18:21.652Z,102378.09
2022-08-30T08:20:48.002Z,102391.03
2022-08-30T08:23:15.440Z,102383.13
2022-08-30T08:25:41.951Z,102389.38
2022-08-30T08:28:08.677Z,102379.41
2022-08-30T08:30:36.836Z,102388.75
2022-08-30T08:33:04.438Z,102383.75
2022-08-30T08:35:31.425Z,102386.03
2022-08-30T08:37:58.245Z,102386.47
2022-08-30T08:40:25.819Z,102385.81
2022-08-30T08:43:10.759Z,102380.59
2022-08-30T08:46:03.936Z,102377.84
2022-08-30T08:48:58.471Z,102382.06
2022-08-30T08:51:49.107Z,102373.97
2022-08-30T08:54:23.794Z,102375.16
2022-08-30T08:56:50.407Z,102364.88
2022-08-30T08:59:17.491Z,102373.66
2022-08-30T09:01:43.916Z,102378.69
2022-08-30T09:04:15.079Z,102377.56
2022-08-30T09:07:09.373Z,102373.41
2022-08-30T09:09:38.479Z,102380.97
2022-08-30T09:12:06.962Z,102376.56
2022-08-30T09:14:44.299Z,102369.69
2022-08-30T09:17:15.561Z,102371.03
2022-08-30T09:19:52.986Z,102368.94
2022-08-30T09:22:28.521Z,102369.31
2022-08-30T09:25:12.738Z,102373.13
2022-08-30T09:27:41.910Z,102373.88
2022-08-30T09:30:15.372Z,102367.50
2022-08-30T09:32:52.230Z,102370.81
2022-08-30T09:35:22.256Z,102366.69
2022-08-30T09:38:04.175Z,102365.38
2022-08-30T09:40:42.813Z,102357.69
2022-08-30T09:43:19.172Z,102367.69
2022-08-30T09:46:00.978Z,102364.53
2022-08-30T09:48:44.099Z,102368.78
2022-08-30T09:51:10.444Z,102369.53
2022-08-30T09:54:17.346Z,102364.09
2022-08-30T09:56:56.130Z,102376.31
2022-08-30T09:59:29.342Z,102368.28
2022-08-30T10:02:33.415Z,102369.72
2022-08-30T10:05:06.394Z,102373.19
2022-08-30T10:07:53.556Z,102367.78
2022-08-30T10:11:00.915Z,102361.53
2022-08-30T10:13:57.983Z,102372.72
2022-08-30T10:16:39.295Z,102363.94
2022-08-30T10:19:37.814Z,102363.03
2022-08-30T10:22:22.405Z,102363.75
2022-08-30T10:25:02.667Z,102360.91
2022-08-30T10:27:36.226Z,102358.72
2022-08-30T10:30:07.907Z,102363.16
2022-08-30T10:32:41.713Z,102367.34
2022-08-30T10:35:19.672Z,102362.91
2022-08-30T10:38:23.516Z,102351.31
2022-08-30T10:41:15.180Z,102363.66
2022-08-30T10:43:53.300Z,102358.00
2022-08-30T10:47:02.595Z,102357.44
2022-08-30T10:49:34.841Z,102351.38
2022-08-30T10:52:14.186Z,102354.22
2022-08-30T10:54:51.442Z,102355.38
2022-08-30T10:57:20.311Z,102352.59
2022-08-30T11:00:07.939Z,102347.81
2022-08-30T11:02:52.608Z,102346.06
2022-08-30T11:05:27.922Z,102357.78
2022-08-30T11:08:03.092Z,102352.09
2022-08-30T11:10:50.211Z,102356.03
2022-08-30T11:13:26.322Z,102338.00
2022-08-30T11:15:59.486Z,102337.03
2022-08-30T11:18:30.993Z,102336.44
2022-08-30T11:21:17.221Z,102330.84
2022-08-30T11:23:59.608Z,102343.31
2022-08-30T11:26:45.291Z,102339.84
2022-08-30T11:29:27.132Z,102333.22
2022-08-30T11:31:55.269Z,102338.50
2022-08-30T11:34:46.557Z,102337.47
2022-08-30T11:37:41.934Z,102333.94
2022-08-30T11:40:19.433Z,102335.19
2022-08-30T11:42:49.302Z,102331.09
2022-08-30T11:45:26.510Z,102330.16
2022-08-30T11:48:05.449Z,102322.94
2022-08-30T11:50:56.934Z,102326.75
2022-08-30T11:53:28.107Z,102323.25
2022-08-30T11:56:08.536Z,102310.31
2022-08-30T11:59:09.821Z,102323.75
2022-08-30T12:01:56.391Z,102317.31
2022-08-30T12:04:34.862Z,102312.50
2022-08-30T12:07:07.810Z,102303.13
2022-08-30T12:09:34.763Z,102314.91
2022-08-30T12:12:05.489Z,102305.16
2022-08-30T12:14:33.312Z,102303.56
2022-08-30T12:17:20.831Z,102298.72
2022-08-30T12:19:50.476Z,102296.78
2022-08-30T12:22:18.894Z,102296.34
2022-08-30T12:24:51.683Z,102297.66
2022-08-30T12:27:33.275Z,102301.31
2022-08-30T12:30:07.397Z,102294.97
2022-08-30T12:32:44.313Z,102292.94
2022-08-30T12:35:19.923Z,102286.41
2022-08-30T12:37:57.627Z,102276.00
2022-08-30T12:40:25.421Z,102291.44
2022-08-30T12:42:56.410Z,102279.22
2022-08-30T12:45:28.500Z,102281.91
2022-08-30T12:48:17.491Z,102296.78
2022-08-30T12:50:51.816Z,102300.03
2022-08-30T12:53:29.368Z,102299.53
2022-08-30T12:55:59.336Z,102284.88
2022-08-30T12:58:43.440Z,102290.59
2022-08-30T13:01:32.270Z,102290.63
2022-08-30T13:03:59.802Z,102280.53
2022-08-30T13:06:49.004Z,102284.66
2022-08-30T13:09:27.207Z,102280.97
2022-08-30T13:11:54.338Z,102274.81
2022-08-30T13:14:31.514Z,102272.13
2022-08-30T13:17:20.313Z,102269.38
2022-08-30T13:20:11.282Z,102263.13
2022-08-30T13:22:39.974Z,102265.00
2022-08-30T13:25:09.268Z,102262.00
2022-08-30T13:27:37.880Z,102272.88
2022-08-30T13:30:13.651Z,102260.13
2022-08-30T13:32:40.885Z,102260.25
2022-08-30T13:35:08.210Z,102257.91
2022-08-30T13:37:51.836Z,102256.50
2022-08-30T13:40:21.202Z,102257.28
2022-08-30T13:42:47.927Z,102254.19
2022-08-30T13:48:06.445Z,102241.84
2022-08-30T13:50:33.052Z,102238.91
2022-08-30T13:52:59.397Z,102251.88
2022-08-30T13:55:26.473Z,102253.78
2022-08-30T13:57:55.057Z,102252.75
2022-08-30T14:00:23.474Z,102253.78
2022-08-30T14:02:54.474Z,102258.50
2022-08-30T14:05:48.194Z,102251.94
2022-08-30T14:11:05.038Z,102248.47
2022-08-30T14:13:31.455Z,102245.31
2022-08-30T14:18:47.146Z,102245.91
2022-08-30T14:21:13.712Z,102240.16
2022-08-30T14:23:40.061Z,102244.91
2022-08-30T14:26:17.192Z,102246.28
2022-08-30T14:28:44.766Z,102243.16
2022-08-30T14:31:11.955Z,102245.03
2022-08-30T14:33:39.980Z,102235.91
2022-08-30T14:36:12.493Z,102243.25
2022-08-30T14:38:42.634Z,102236.38
2022-08-30T14:41:10.687Z,102233.78
2022-08-30T14:43:38.691Z,102232.47
2022-08-30T14:46:05.590Z,102228.94
2022-08-30T14:48:32.031Z,102240.66
2022-08-30T14:50:58.386Z,102240.75
2022-08-30T14:53:24.996Z,102243.06
2022-08-30T14:55:51.330Z,102239.88
2022-08-30T14:58:18.000Z,102240.47
2022-08-30T15:00:52.349Z,102245.03
2022-08-30T15:03:18.804Z,102246.41
2022-08-30T15:05:50.370Z,102239.91
2022-08-30T15:08:19.546Z,102235.34
2022-08-30T15:10:47.309Z,102236.09
2022-08-30T15:13:13.654Z,102226.81
2022-08-30T15:15:42.047Z,102222.88
2022-08-30T15:18:08.944Z,102214.97
2022-08-30T15:20:35.531Z,102218.78
2022-08-30T15:23:02.104Z,102220.84
2022-08-30T15:25:28.463Z,102222.31
2022-08-30T15:27:54.800Z,102218.03
2022-08-30T15:30:22.080Z,102223.97
2022-08-30T15:32:48.595Z,102219.13
2022-08-30T15:35:14.990Z,102211.22
2022-08-30T15:37:41.345Z,102203.69
2022-08-30T15:40:09.681Z,102207.59
2022-08-30T15:42:36.311Z,102208.53
2022-08-30T15:45:02.862Z,102203.97
2022-08-30T15:47:31.452Z,102196.44
2022-08-30T15:50:01.924Z,102201.81
2022-08-30T15:52:29.976Z,102202.84
2022-08-30T15:54:57.451Z,102204.50
2022-08-30T15:57:24.514Z,102204.69
2022-08-30T15:59:51.565Z,102200.88
2022-08-30T16:02:18.019Z,102201.97
2022-08-30T16:04:44.620Z,102196.34
2022-08-30T16:07:13.485Z,102198.59
2022-08-30T16:09:40.508Z,102197.16
2022-08-30T16:12:09.784Z,102198.25
2022-08-30T16:14:36.677Z,102195.91
2022-08-30T16:17:03.762Z,102199.25
2022-08-30T16:19:31.797Z,102201.81
2022-08-30T16:21:58.516Z,102199.31
2022-08-30T16:24:25.848Z,102195.94
2022-08-30T16:26:52.715Z,102196.66
2022-08-30T16:29:19.243Z,102191.34
2022-08-30T16:31:47.456Z,102192.53
2022-08-30T16:34:16.463Z,102187.22
2022-08-30T16:36:43.394Z,102187.72
2022-08-30T16:39:12.602Z,102184.19
2022-08-30T16:41:39.520Z,102182.00
2022-08-30T16:44:06.535Z,102179.84
2022-08-30T16:46:35.991Z,102184.41
2022-08-30T16:49:02.852Z,102187.97
2022-08-30T16:51:31.454Z,102184.66
2022-08-30T16:54:00.442Z,102180.81
2022-08-30T16:56:29.733Z,102183.91
2022-08-30T16:59:01.805Z,102181.22
2022-08-30T17:01:34.752Z,102178.88
2022-08-30T17:04:02.286Z,102174.84
2022-08-30T17:06:28.768Z,102187.91
2022-08-30T17:08:56.242Z,102180.22
2022-08-30T17:11:23.438Z,102192.97
2022-08-30T17:13:49.790Z,102188.63
2022-08-30T17:16:17.701Z,102188.28
2022-08-30T17:18:49.222Z,102176.53
2022-08-30T17:21:15.617Z,102186.09
2022-08-30T17:23:41.967Z,102182.56
2022-08-30T17:26:11.348Z,102185.56
2022-08-30T17:28:39.640Z,102192.59
2022-08-30T17:31:06.056Z,102191.41
2022-08-30T17:33:32.535Z,102190.59
2022-08-30T17:35:59.087Z,102192.59
2022-08-30T17:38:26.411Z,102193.53
2022-08-30T17:40:52.838Z,102198.19
2022-08-30T17:43:19.201Z,102208.88
2022-08-30T17:45:45.550Z,102203.47
2022-08-30T17:48:11.909Z,102208.63
2022-08-30T17:50:38.332Z,102204.94
2022-08-30T17:53:04.799Z,102206.06
2022-08-30T17:55:31.813Z,102218.53
2022-08-30T17:58:00.535Z,102217.50
2022-08-30T18:00:27.384Z,102210.28
2022-08-30T18:02:53.839Z,102216.59
2022-08-30T18:05:24.615Z,102214.13
2022-08-30T18:07:51.806Z,102223.78
2022-08-30T18:10:18.183Z,102224.41
2022-08-30T18:12:44.598Z,102224.19
2022-08-30T18:15:15.925Z,102222.66
2022-08-30T18:17:42.965Z,102230.97
2022-08-30T18:20:09.803Z,102234.97
2022-08-30T18:22:37.707Z,102237.25
2022-08-30T18:25:04.786Z,102233.97
2022-08-30T18:27:31.178Z,102240.25
2022-08-30T18:29:57.615Z,102243.38
2022-08-30T18:32:35.932Z,102240.47
2022-08-30T18:35:02.717Z,102247.66
2022-08-30T18:37:32.086Z,102252.91
2022-08-30T18:39:58.688Z,102252.81
2022-08-30T18:42:27.447Z,102251.56
2022-08-30T18:44:53.816Z,102256.78
2022-08-30T18:47:32.129Z,102260.78
2022-08-30T18:49:58.647Z,102256.84
2022-08-30T18:52:27.802Z,102257.13
2022-08-30T18:54:54.191Z,102254.63
2022-08-30T18:57:22.502Z,102268.44
2022-08-30T18:59:49.472Z,102271.69
2022-08-30T19:02:17.518Z,102273.41
2022-08-30T19:04:45.335Z,102274.13
2022-08-30T19:07:14.738Z,102276.69
2022-08-30T19:09:43.015Z,102273.63
2022-08-30T19:12:11.483Z,102280.94
2022-08-30T19:14:38.318Z,102280.63
2022-08-30T19:17:07.008Z,102278.94
2022-08-30T19:19:34.889Z,102276.72
2022-08-30T19:22:04.172Z,102276.44
2022-08-30T19:24:30.531Z,102283.34
2022-08-30T19:26:58.738Z,102275.06
2022-08-30T19:29:25.275Z,102280.13
2022-08-30T19:31:52.651Z,102278.75
2022-08-30T19:34:19.138Z,102280.72
2022-08-30T19:36:45.474Z,102276.78
2022-08-30T19:39:12.622Z,102279.31
2022-08-30T19:41:38.990Z,102278.72
2022-08-30T19:44:06.944Z,102283.50
2022-08-30T19:46:33.535Z,102285.44
2022-08-30T19:49:04.049Z,102286.69
2022-08-30T19:51:30.783Z,102291.88
2022-08-30T19:53:58.867Z,102295.94
2022-08-30T19:56:26.129Z,102293.25
2022-08-30T19:58:52.587Z,102290.72
2022-08-30T20:01:32.749Z,102299.50
2022-08-30T20:04:03.083Z,102301.34
2022-08-30T20:06:30.227Z,102296.31
2022-08-30T20:08:58.081Z,102294.22
2022-08-30T20:11:25.715Z,102284.28
2022-08-30T20:13:52.066Z,102297.03
2022-08-30T20:16:18.667Z,102304.22
2022-08-30T20:18:45.072Z,102299.31
2022-08-30T20:21:14.254Z,102300.88
2022-08-30T20:23:42.110Z,102291.19
2022-08-30T20:26:09.859Z,102299.50
2022-08-30T20:28:37.259Z,102305.09
2022-08-30T20:31:05.768Z,102303.84
2022-08-30T20:33:37.447Z,102312.13
2022-08-30T20:36:06.311Z,102307.06
2022-08-30T20:38:33.124Z,102313.41
2022-08-30T20:41:01.048Z,102310.72
2022-08-30T20:43:30.170Z,102319.16
2022-08-30T20:45:56.806Z,102309.91
2022-08-30T20:48:28.479Z,102311.56
2022-08-30T20:50:54.839Z,102312.56
2022-08-30T20:53:21.203Z,102322.69
2022-08-30T20:55:47.842Z,102327.44
2022-08-30T20:58:15.059Z,102319.75
2022-08-30T21:00:45.936Z,102324.50
2022-08-30T21:03:25.702Z,102318.88
2022-08-30T21:05:53.919Z,102324.78
2022-08-30T21:08:20.392Z,102324.22
2022-08-30T21:10:47.783Z,102325.47
2022-08-30T21:13:14.173Z,102328.28
2022-08-30T21:15:45.585Z,102335.28
2022-08-30T21:18:15.088Z,102332.78
2022-08-30T21:20:41.739Z,102334.28
2022-08-30T21:23:08.635Z,102339.06
2022-08-30T21:25:38.234Z,102335.44
2022-08-30T21:28:04.588Z,102347.75
2022-08-30T21:30:31.020Z,102339.34
2022-08-30T21:33:00.125Z,102345.25
2022-08-30T21:35:45.760Z,102345.53
2022-08-30T21:38:12.094Z,102350.88
2022-08-30T21:40:38.516Z,102353.09
2022-08-30T21:43:06.180Z,102346.09
2022-08-30T21:45:36.953Z,102347.91
2022-08-30T21:48:03.911Z,102348.03
2022-08-30T21:50:30.267Z,102351.84
2022-08-30T21:52:56.658Z,102353.81
2022-08-30T21:55:22.991Z,102355.06
2022-08-30T21:57:49.542Z,102357.28
2022-08-30T22:00:20.229Z,102355.88
2022-08-30T22:02:49.194Z,102363.16
2022-08-30T22:05:20.139Z,102369.75
2022-08-30T22:07:46.502Z,102367.50
2022-08-30T22:10:13.347Z,102367.66
2022-08-30T22:12:39.753Z,102371.53
2022-08-30T22:15:09.084Z,102371.09
2022-08-30T22:17:35.487Z,102366.22
2022-08-30T22:20:01.961Z,102367.03
2022-08-30T22:22:28.332Z,102369.72
2022-08-30T22:24:54.674Z,102370.94
2022-08-30T22:27:21.340Z,102375.13
2022-08-30T22:29:47.727Z,102365.59
2022-08-30T22:32:14.188Z,102366.69
2022-08-30T22:34:40.551Z,102368.66
2022-08-30T22:37:07.850Z,102374.28
2022-08-30T22:39:34.410Z,102371.72
2022-08-30T22:42:00.812Z,102372.84
2022-08-30T22:44:27.318Z,102376.72
2022-08-30T22:46:53.742Z,102377.00
2022-08-30T22:49:20.413Z,102371.69
2022-08-30T22:51:46.827Z,102382.84
2022-08-30T22:54:13.194Z,102377.75
2022-08-30T22:56:40.256Z,102375.38
2022-08-30T22:59:07.274Z,102381.94
2022-08-30T23:01:37.254Z,102381.22
2022-08-30T23:04:06.423Z,102380.63
2022-08-30T23:06:33.947Z,102381.06
2022-08-30T23:09:00.406Z,102382.41
2022-08-30T23:11:27.399Z,102388.59
2022-08-30T23:13:54.114Z,102382.41
2022-08-30T23:16:21.398Z,102385.22
2022-08-30T23:18:48.186Z,102380.13
2022-08-30T23:21:21.916Z,102388.13
2022-08-30T23:24:08.978Z,102377.91
2022-08-30T23:26:54.827Z,102378.28
2022-08-30T23:29:40.226Z,102381.47
2022-08-30T23:32:25.364Z,102382.69
2022-08-30T23:35:10.206Z,102376.38
2022-08-30T23:37:55.395Z,102382.56
2022-08-30T23:40:41.840Z,102388.13
2022-08-30T23:43:28.533Z,102385.84
2022-08-30T23:46:16.965Z,102373.94
2022-08-30T23:49:08.400Z,102384.13
2022-08-30T23:51:55.274Z,102379.88
2022-08-30T23:54:40.753Z,102382.81
2022-08-30T23:57:26.002Z,102385.69
